Time;durP1;ratioP1;P1;durP2;ratioP2;P2;SDS_P1;SDS_P2;PMS_P1;PMS_P2;Temp;Humidity;BMP_temperature;BMP_pressure;BME280_temperature;BME280_humidity;BME280_pressure;Samples;Min_cycle;Max_cycle;Signal;HPM_P1;HPM_P2
2022/06/10 00:02:21;0.00;0.00;0.62;0.00;0.00;0.62;1.50;0.97;;;28.10;29.80;;;;;;2251461;61;20379;-51
2022/06/10 00:05:10;0.00;0.00;0.62;0.00;0.00;0.62;1.80;1.23;;;28.10;29.80;;;;;;2250231;61;20894;-55
2022/06/10 00:07:55;0.00;0.00;0.62;0.00;0.00;0.62;1.70;1.00;;;28.10;29.70;;;;;;2251245;61;20945;-50
2022/06/10 00:10:41;0.00;0.00;0.62;0.00;0.00;0.62;1.80;1.20;;;28.10;29.70;;;;;;2251418;61;20421;-56
2022/06/10 00:13:32;0.00;0.00;0.62;0.00;0.00;0.62;2.30;1.37;;;28.10;29.70;;;;;;2248349;61;20797;-56
2022/06/10 00:16:19;0.00;0.00;0.62;0.00;0.00;0.62;2.07;1.20;;;28.10;29.70;;;;;;2251039;61;20367;-53
2022/06/10 00:19:04;0.00;0.00;0.62;0.00;0.00;0.62;1.50;1.00;;;28.10;29.50;;;;;;2250983;61;20760;-51
2022/06/10 00:21:50;0.00;0.00;0.62;0.00;0.00;0.62;3.30;1.43;;;28.10;29.30;;;;;;2247286;61;20390;-56
2022/06/10 00:24:35;0.00;0.00;0.62;0.00;0.00;0.62;2.03;1.30;;;28.00;29.20;;;;;;2251257;61;20950;-55
2022/06/10 00:27:20;0.00;0.00;0.62;0.00;0.00;0.62;3.23;1.30;;;28.00;29.20;;;;;;2251040;61;20362;-53
2022/06/10 00:30:08;0.00;0.00;0.62;0.00;0.00;0.62;3.47;1.60;;;28.00;29.20;;;;;;2250696;61;20363;-54
2022/06/10 00:32:53;0.00;0.00;0.62;0.00;0.00;0.62;1.50;1.17;;;28.00;29.20;;;;;;2251636;61;20418;-56
2022/06/10 00:35:37;0.00;0.00;0.62;0.00;0.00;0.62;2.43;1.60;;;28.00;29.20;;;;;;2250094;61;20366;-55
2022/06/10 00:38:24;0.00;0.00;0.62;0.00;0.00;0.62;1.77;1.50;;;28.00;29.20;;;;;;2251519;61;20954;-54
2022/06/10 00:41:10;0.00;0.00;0.62;0.00;0.00;0.62;2.20;1.30;;;28.00;29.20;;;;;;2251280;61;20949;-54
2022/06/10 00:43:54;0.00;0.00;0.62;0.00;0.00;0.62;2.30;1.60;;;27.90;29.10;;;;;;2250118;61;20851;-57
2022/06/10 00:46:39;0.00;0.00;0.62;0.00;0.00;0.62;4.60;1.23;;;27.90;29.10;;;;;;2251630;61;20777;-58
2022/06/10 00:49:24;0.00;0.00;0.62;0.00;0.00;0.62;2.07;1.30;;;27.80;29.10;;;;;;2247676;61;20394;-56
2022/06/10 00:52:22;0.00;0.00;0.62;0.00;0.00;0.62;3.17;1.67;;;27.80;29.00;;;;;;2250891;61;20358;-59
2022/06/10 00:55:09;0.00;0.00;0.62;0.00;0.00;0.62;2.60;1.60;;;27.80;29.00;;;;;;2251177;61;20359;-59
2022/06/10 00:58:00;0.00;0.00;0.62;0.00;0.00;0.62;3.20;1.50;;;27.80;29.00;;;;;;2247299;61;20375;-58
2022/06/10 01:00:45;0.00;0.00;0.62;0.00;0.00;0.62;4.10;1.60;;;27.80;29.10;;;;;;2251868;61;20772;-57
2022/06/10 01:03:31;0.00;0.00;0.62;0.00;0.00;0.62;2.90;1.67;;;27.80;28.80;;;;;;2251186;61;20489;-58
2022/06/10 01:06:16;0.00;0.00;0.62;0.00;0.00;0.62;3.97;1.57;;;27.70;28.60;;;;;;2250901;61;20417;-55
2022/06/10 01:09:03;0.00;0.00;0.62;0.00;0.00;0.62;2.17;1.33;;;27.70;28.50;;;;;;2251670;61;20366;-55
2022/06/10 01:12:21;0.00;0.00;0.62;0.00;0.00;0.62;3.80;2.33;;;27.60;28.50;;;;;;2247824;61;20402;-57
2022/06/10 01:15:23;0.00;0.00;0.62;0.00;0.00;0.62;5.00;1.53;;;27.60;28.50;;;;;;2248145;61;20390;-56
2022/06/10 01:18:43;0.00;0.00;0.62;0.00;0.00;0.62;4.00;1.20;;;27.50;28.40;;;;;;2251364;61;20830;-54
2022/06/10 01:22:06;0.00;0.00;0.62;0.00;0.00;0.62;2.70;1.10;;;27.40;28.50;;;;;;2250905;61;20402;-52
2022/06/10 01:25:24;0.00;0.00;0.62;0.00;0.00;0.62;2.00;1.63;;;27.40;28.60;;;;;;2251072;61;20775;-56
2022/06/10 01:28:31;0.00;0.00;0.62;0.00;0.00;0.62;2.07;1.40;;;27.40;28.70;;;;;;2250535;61;20396;-54
2022/06/10 01:31:25;0.00;0.00;0.62;0.00;0.00;0.62;4.13;1.60;;;27.40;28.70;;;;;;2251902;61;20371;-54
2022/06/10 01:34:26;0.00;0.00;0.62;0.00;0.00;0.62;2.93;1.60;;;27.40;28.80;;;;;;2251208;61;20462;-53
2022/06/10 01:37:18;0.00;0.00;0.62;0.00;0.00;0.62;1.97;1.43;;;27.40;28.80;;;;;;2252114;61;20393;-58
2022/06/10 01:40:14;0.00;0.00;0.62;0.00;0.00;0.62;3.10;1.57;;;27.40;28.80;;;;;;2251862;61;20467;-57
2022/06/10 01:43:07;0.00;0.00;0.62;0.00;0.00;0.62;2.23;1.10;;;27.40;28.80;;;;;;2251113;61;20394;-56
2022/06/10 01:45:58;0.00;0.00;0.62;0.00;0.00;0.62;1.50;1.17;;;27.30;28.80;;;;;;2252053;61;20386;-55
2022/06/10 01:48:51;0.00;0.00;0.62;0.00;0.00;0.62;3.20;1.63;;;27.30;28.80;;;;;;2251886;61;20391;-57
2022/06/10 01:51:46;0.00;0.00;0.62;0.00;0.00;0.62;2.70;1.33;;;27.30;28.80;;;;;;2251451;61;20375;-57
2022/06/10 01:54:42;0.00;0.00;0.62;0.00;0.00;0.62;3.07;1.47;;;27.30;28.90;;;;;;2251727;61;20401;-56
2022/06/10 01:57:37;0.00;0.00;0.62;0.00;0.00;0.62;3.10;1.40;;;27.30;28.80;;;;;;2251197;61;20417;-55
2022/06/10 02:00:26;0.00;0.00;0.62;0.00;0.00;0.62;2.57;1.43;;;27.30;28.90;;;;;;2251948;61;20787;-59
2022/06/10 02:03:17;0.00;0.00;0.62;0.00;0.00;0.62;1.83;1.30;;;27.30;28.80;;;;;;2248257;61;20529;-59
2022/06/10 02:06:10;0.00;0.00;0.62;0.00;0.00;0.62;2.80;1.67;;;27.30;28.80;;;;;;2251000;61;20829;-55
2022/06/10 02:09:01;0.00;0.00;0.62;0.00;0.00;0.62;3.60;1.40;;;27.30;28.80;;;;;;2248476;61;20417;-57
2022/06/10 02:11:51;0.00;0.00;0.62;0.00;0.00;0.62;2.10;1.40;;;27.30;28.80;;;;;;2250889;61;20566;-56
2022/06/10 02:14:42;0.00;0.00;0.62;0.00;0.00;0.62;1.83;1.20;;;27.30;28.80;;;;;;2251117;61;20422;-58
2022/06/10 02:17:34;0.00;0.00;0.62;0.00;0.00;0.62;3.07;1.40;;;27.20;28.80;;;;;;2251902;61;20367;-58
2022/06/10 02:20:23;0.00;0.00;0.62;0.00;0.00;0.62;3.07;1.90;;;27.20;28.70;;;;;;2251263;61;20362;-57
2022/06/10 02:23:15;0.00;0.00;0.62;0.00;0.00;0.62;3.73;1.60;;;27.20;28.60;;;;;;2251727;61;20406;-53
2022/06/10 02:26:03;0.00;0.00;0.62;0.00;0.00;0.62;2.47;1.60;;;27.20;28.60;;;;;;2251447;61;20463;-56
2022/06/10 02:28:54;0.00;0.00;0.62;0.00;0.00;0.62;3.07;1.30;;;27.20;28.40;;;;;;2251947;61;20371;-58
2022/06/10 02:31:43;0.00;0.00;0.62;0.00;0.00;0.62;2.67;1.67;;;27.10;28.30;;;;;;2252152;61;20366;-55
2022/06/10 02:34:29;0.00;0.00;0.62;0.00;0.00;0.62;3.90;1.50;;;27.00;28.10;;;;;;2250799;61;20433;-58
2022/06/10 02:37:21;0.00;0.00;0.62;0.00;0.00;0.62;2.90;1.60;;;27.00;28.20;;;;;;2251607;61;20367;-55
2022/06/10 02:40:17;0.00;0.00;0.62;0.00;0.00;0.62;2.00;1.40;;;26.90;28.30;;;;;;2251557;61;20426;-57
2022/06/10 02:43:08;0.00;0.00;0.62;0.00;0.00;0.62;4.60;1.63;;;26.90;28.30;;;;;;2250867;61;20430;-58
2022/06/10 02:46:00;0.00;0.00;0.62;0.00;0.00;0.62;3.63;1.77;;;26.80;28.20;;;;;;2251802;61;20430;-55
2022/06/10 02:48:57;0.00;0.00;0.62;0.00;0.00;0.62;3.10;1.50;;;26.70;28.20;;;;;;2247484;61;20885;-55
2022/06/10 02:51:43;0.00;0.00;0.62;0.00;0.00;0.62;2.73;1.50;;;26.60;28.20;;;;;;2248733;61;20406;-55
2022/06/10 02:54:32;0.00;0.00;0.62;0.00;0.00;0.62;3.50;1.73;;;26.60;28.20;;;;;;2248211;61;20382;-56
2022/06/10 02:57:23;0.00;0.00;0.62;0.00;0.00;0.62;3.40;2.00;;;26.60;28.30;;;;;;2251102;61;20422;-53
2022/06/10 03:03:26;0.00;0.00;0.62;0.00;0.00;0.62;6.33;2.23;;;26.40;28.20;;;;;;2247766;61;20486;-56
2022/06/10 03:06:20;0.00;0.00;0.62;0.00;0.00;0.62;4.63;2.37;;;26.40;28.20;;;;;;2251632;61;20410;-53
2022/06/10 03:09:14;0.00;0.00;0.62;0.00;0.00;0.62;10.93;2.57;;;26.30;28.30;;;;;;2251545;61;20406;-56
2022/06/10 03:12:14;0.00;0.00;0.62;0.00;0.00;0.62;3.10;1.67;;;26.30;28.40;;;;;;2250209;61;20463;-56
2022/06/10 03:15:22;0.00;0.00;0.62;0.00;0.00;0.62;4.43;1.90;;;26.20;28.40;;;;;;2251408;61;20422;-57
2022/06/10 03:18:17;0.00;0.00;0.62;0.00;0.00;0.62;3.10;1.90;;;26.20;29.00;;;;;;2250659;61;20406;-57
2022/06/10 03:21:16;0.00;0.00;0.62;0.00;0.00;0.62;3.63;2.00;;;26.20;28.40;;;;;;2251830;61;20438;-55
2022/06/10 03:24:10;0.00;0.00;0.62;0.00;0.00;0.62;3.77;1.87;;;26.10;28.40;;;;;;2251385;61;20852;-56
2022/06/10 03:27:10;0.00;0.00;0.62;0.00;0.00;0.62;4.20;1.87;;;26.00;28.30;;;;;;2251226;61;20367;-54
2022/06/10 03:30:02;0.00;0.00;0.62;0.00;0.00;0.62;5.30;2.10;;;26.00;28.30;;;;;;2251751;61;20717;-55
2022/06/10 03:32:57;0.00;0.00;0.62;0.00;0.00;0.62;3.10;1.83;;;25.90;28.30;;;;;;2251157;61;20436;-57
2022/06/10 03:35:47;0.00;0.00;0.62;0.00;0.00;0.62;3.30;1.97;;;25.80;28.40;;;;;;2251383;61;20410;-56
2022/06/10 03:38:37;0.00;0.00;0.62;0.00;0.00;0.62;4.13;2.00;;;25.80;28.50;;;;;;2251236;61;20375;-53
2022/06/10 03:41:26;0.00;0.00;0.62;0.00;0.00;0.62;3.87;2.10;;;25.70;28.50;;;;;;2250745;61;20355;-53
2022/06/10 03:44:16;0.00;0.00;0.62;0.00;0.00;0.62;5.50;2.53;;;25.70;28.50;;;;;;2251212;61;20394;-53
2022/06/10 03:47:03;0.00;0.00;0.62;0.00;0.00;0.62;2.37;1.80;;;25.70;28.70;;;;;;2251093;61;20370;-56
2022/06/10 03:49:57;0.00;0.00;0.62;0.00;0.00;0.62;3.70;1.90;;;25.60;28.60;;;;;;2251399;61;20366;-57
2022/06/10 03:52:44;0.00;0.00;0.62;0.00;0.00;0.62;4.80;2.20;;;25.60;28.60;;;;;;2251452;61;20383;-57
2022/06/10 03:55:30;0.00;0.00;0.62;0.00;0.00;0.62;4.53;2.57;;;25.50;28.70;;;;;;2250372;61;20366;-56
2022/06/10 03:58:15;0.00;0.00;0.62;0.00;0.00;0.62;3.23;2.30;;;25.50;28.70;;;;;;2251476;61;20359;-53
2022/06/10 04:01:00;0.00;0.00;0.62;0.00;0.00;0.62;3.90;2.50;;;25.40;28.70;;;;;;2251459;61;20827;-57
2022/06/10 04:03:45;0.00;0.00;0.62;0.00;0.00;0.62;4.27;2.17;;;25.40;28.80;;;;;;2247192;61;20807;-52
2022/06/10 04:06:31;0.00;0.00;0.62;0.00;0.00;0.62;5.37;2.33;;;25.30;28.80;;;;;;2251558;61;20370;-54
2022/06/10 04:09:16;0.00;0.00;0.62;0.00;0.00;0.62;4.40;2.37;;;25.30;28.80;;;;;;2251136;61;20379;-52
2022/06/10 04:12:02;0.00;0.00;0.62;0.00;0.00;0.62;4.30;2.33;;;25.20;28.90;;;;;;2251209;61;20455;-56
2022/06/10 04:14:47;0.00;0.00;0.62;0.00;0.00;0.62;5.17;2.60;;;25.20;28.90;;;;;;2247779;61;20383;-55
2022/06/10 04:17:32;0.00;0.00;0.62;0.00;0.00;0.62;5.00;2.20;;;25.10;29.00;;;;;;2250434;61;20362;-56
2022/06/10 04:20:22;0.00;0.00;0.62;0.00;0.00;0.62;3.63;2.40;;;25.10;29.10;;;;;;2251366;61;20414;-55
2022/06/10 04:23:09;0.00;0.00;0.62;0.00;0.00;0.62;5.80;2.57;;;25.00;29.10;;;;;;2251252;61;20394;-57
2022/06/10 04:25:54;0.00;0.00;0.62;0.00;0.00;0.62;5.57;2.60;;;25.00;29.20;;;;;;2250232;61;20370;-55
2022/06/10 04:28:39;0.00;0.00;0.62;0.00;0.00;0.62;7.27;2.43;;;24.90;29.20;;;;;;2251506;61;20444;-52
2022/06/10 04:31:24;0.00;0.00;0.62;0.00;0.00;0.62;9.00;2.57;;;24.80;29.30;;;;;;2250584;61;20842;-57
2022/06/10 04:34:11;0.00;0.00;0.62;0.00;0.00;0.62;4.93;2.37;;;24.80;29.40;;;;;;2250596;61;20958;-53
2022/06/10 04:36:56;0.00;0.00;0.62;0.00;0.00;0.62;6.23;2.70;;;24.80;29.50;;;;;;2251462;61;20362;-56
2022/06/10 04:39:42;0.00;0.00;0.62;0.00;0.00;0.62;7.90;2.87;;;24.70;29.50;;;;;;2250646;61;20363;-56
2022/06/10 04:42:27;0.00;0.00;0.62;0.00;0.00;0.62;5.93;2.57;;;24.70;29.60;;;;;;2250319;61;20440;-53
2022/06/10 04:45:14;0.00;0.00;0.62;0.00;0.00;0.62;9.53;2.90;;;24.70;29.80;;;;;;2251275;61;20362;-53
2022/06/10 04:47:59;0.00;0.00;0.62;0.00;0.00;0.62;7.70;2.80;;;24.60;29.80;;;;;;2250260;61;20363;-58
2022/06/10 04:50:47;0.00;0.00;0.62;0.00;0.00;0.62;8.80;2.97;;;24.60;29.80;;;;;;2251282;61;20394;-55
2022/06/10 04:53:32;0.00;0.00;0.62;0.00;0.00;0.62;6.17;3.03;;;24.60;29.80;;;;;;2250931;61;20931;-54
2022/06/10 04:56:19;0.00;0.00;0.62;0.00;0.00;0.62;7.13;3.50;;;24.60;29.80;;;;;;2250755;61;20410;-54
2022/06/10 04:59:04;0.00;0.00;0.62;0.00;0.00;0.62;14.30;3.43;;;24.60;29.80;;;;;;2251492;61;20367;-52
2022/06/10 05:01:50;0.00;0.00;0.62;0.00;0.00;0.62;6.93;3.47;;;24.60;29.80;;;;;;2250597;61;20402;-54
2022/06/10 05:04:34;0.00;0.00;0.62;0.00;0.00;0.62;6.50;2.57;;;24.60;29.80;;;;;;2250862;61;20379;-57
2022/06/10 05:07:19;0.00;0.00;0.62;0.00;0.00;0.62;5.30;3.20;;;24.60;30.00;;;;;;2251155;61;20362;-56
2022/06/10 05:10:06;0.00;0.00;0.62;0.00;0.00;0.62;5.83;3.37;;;24.60;30.10;;;;;;2249942;61;20914;-56
2022/06/10 05:12:53;0.00;0.00;0.62;0.00;0.00;0.62;5.60;3.27;;;24.50;30.30;;;;;;2251506;61;20927;-52
2022/06/10 05:15:38;0.00;0.00;0.62;0.00;0.00;0.62;5.93;3.10;;;24.50;30.40;;;;;;2250289;61;20367;-53
2022/06/10 05:18:24;0.00;0.00;0.62;0.00;0.00;0.62;4.20;3.30;;;24.40;30.40;;;;;;2250535;61;20370;-53
2022/06/10 05:21:10;0.00;0.00;0.62;0.00;0.00;0.62;6.83;3.33;;;24.40;30.70;;;;;;2251578;61;20445;-55
2022/06/10 05:23:54;0.00;0.00;0.62;0.00;0.00;0.62;5.20;2.90;;;24.30;30.70;;;;;;2249998;61;20437;-57
2022/06/10 05:26:39;0.00;0.00;0.62;0.00;0.00;0.62;4.80;2.97;;;24.30;30.90;;;;;;2248232;61;20713;-54
2022/06/10 05:29:25;0.00;0.00;0.62;0.00;0.00;0.62;4.77;3.37;;;24.30;31.00;;;;;;2251317;61;20374;-58
2022/06/10 05:32:10;0.00;0.00;0.62;0.00;0.00;0.62;4.57;3.20;;;24.20;31.10;;;;;;2250486;61;20406;-54
2022/06/10 05:34:55;0.00;0.00;0.62;0.00;0.00;0.62;7.43;3.50;;;24.20;31.30;;;;;;2250874;61;20443;-56
2022/06/10 05:37:41;0.00;0.00;0.62;0.00;0.00;0.62;4.77;3.63;;;24.10;31.30;;;;;;2248184;61;20942;-56
2022/06/10 05:40:29;0.00;0.00;0.62;0.00;0.00;0.62;6.20;3.43;;;24.10;31.60;;;;;;2250996;61;20371;-55
2022/06/10 05:43:14;0.00;0.00;0.62;0.00;0.00;0.62;5.33;3.27;;;24.10;31.70;;;;;;2251139;61;20457;-56
2022/06/10 05:46:00;0.00;0.00;0.62;0.00;0.00;0.62;5.43;3.57;;;24.10;31.80;;;;;;2250921;61;20811;-54
2022/06/10 05:48:45;0.00;0.00;0.62;0.00;0.00;0.62;4.87;3.40;;;24.00;31.90;;;;;;2251290;61;20371;-56
2022/06/10 05:51:30;0.00;0.00;0.62;0.00;0.00;0.62;5.60;3.70;;;24.00;32.20;;;;;;2248193;61;20422;-56
2022/06/10 05:54:16;0.00;0.00;0.62;0.00;0.00;0.62;5.03;3.90;;;24.00;32.20;;;;;;2246851;61;20390;-58
2022/06/10 05:57:01;0.00;0.00;0.62;0.00;0.00;0.62;4.07;3.17;;;23.90;32.30;;;;;;2251338;61;20362;-56
2022/06/10 05:59:52;0.00;0.00;0.62;0.00;0.00;0.62;10.10;3.10;;;23.90;32.40;;;;;;2250651;61;20950;-55
2022/06/10 06:02:38;0.00;0.00;0.62;0.00;0.00;0.62;6.23;4.20;;;24.00;32.50;;;;;;2250588;61;20402;-57
2022/06/10 06:05:23;0.00;0.00;0.62;0.00;0.00;0.62;5.13;3.87;;;24.00;32.70;;;;;;2250810;61;20362;-54
2022/06/10 06:08:09;0.00;0.00;0.62;0.00;0.00;0.62;7.30;3.90;;;24.00;32.60;;;;;;2250831;61;20417;-56
2022/06/10 06:10:54;0.00;0.00;0.62;0.00;0.00;0.62;4.43;3.70;;;24.00;32.60;;;;;;2247753;61;20359;-53
2022/06/10 06:13:39;0.00;0.00;0.62;0.00;0.00;0.62;7.00;4.63;;;24.00;32.60;;;;;;2250871;61;20847;-56
2022/06/10 06:16:24;0.00;0.00;0.62;0.00;0.00;0.62;6.33;4.20;;;24.00;32.60;;;;;;2250280;61;20950;-53
2022/06/10 06:19:10;0.00;0.00;0.62;0.00;0.00;0.62;6.30;3.80;;;24.10;32.70;;;;;;2252100;61;20897;-59
2022/06/10 06:21:56;0.00;0.00;0.62;0.00;0.00;0.62;6.07;3.80;;;24.10;32.70;;;;;;2251215;61;20398;-58
2022/06/10 06:24:40;0.00;0.00;0.62;0.00;0.00;0.62;6.90;3.87;;;24.10;32.80;;;;;;2251257;61;20391;-54
2022/06/10 06:27:26;0.00;0.00;0.62;0.00;0.00;0.62;5.57;3.80;;;24.10;32.80;;;;;;2251647;61;20394;-52
2022/06/10 06:30:19;0.00;0.00;0.62;0.00;0.00;0.62;7.43;4.20;;;24.10;32.90;;;;;;2251624;61;20413;-53
2022/06/10 06:33:07;0.00;0.00;0.62;0.00;0.00;0.62;5.03;3.60;;;24.10;32.90;;;;;;2251532;61;20962;-59
2022/06/10 06:35:54;0.00;0.00;0.62;0.00;0.00;0.62;4.70;3.20;;;24.10;32.70;;;;;;2250511;61;20613;-57
2022/06/10 06:38:41;0.00;0.00;0.62;0.00;0.00;0.62;6.60;3.43;;;24.10;32.80;;;;;;2250913;61;20409;-56
2022/06/10 06:41:26;0.00;0.00;0.62;0.00;0.00;0.62;5.80;2.90;;;24.10;32.70;;;;;;2251505;61;20426;-49
2022/06/10 06:44:11;0.00;0.00;0.62;0.00;0.00;0.62;5.80;3.80;;;24.10;32.80;;;;;;2251186;61;20422;-57
2022/06/10 06:46:56;0.00;0.00;0.62;0.00;0.00;0.62;4.00;3.27;;;24.10;32.80;;;;;;2247854;61;20366;-52
2022/06/10 06:49:42;0.00;0.00;0.62;0.00;0.00;0.62;6.83;3.70;;;24.10;32.70;;;;;;2250040;61;20803;-52
2022/06/10 06:52:29;0.00;0.00;0.62;0.00;0.00;0.62;4.33;3.47;;;24.20;32.80;;;;;;2250017;61;20363;-53
2022/06/10 06:55:16;0.00;0.00;0.62;0.00;0.00;0.62;4.27;3.00;;;24.20;32.80;;;;;;2249741;61;20406;-55
2022/06/10 06:58:04;0.00;0.00;0.62;0.00;0.00;0.62;5.13;3.13;;;24.20;32.60;;;;;;2250531;61;20452;-55
2022/06/10 07:00:49;0.00;0.00;0.62;0.00;0.00;0.62;6.03;3.70;;;24.20;32.60;;;;;;2249943;61;20413;-55
2022/06/10 07:03:34;0.00;0.00;0.62;0.00;0.00;0.62;5.37;2.73;;;24.20;32.40;;;;;;2249920;61;20438;-55
2022/06/10 07:06:20;0.00;0.00;0.62;0.00;0.00;0.62;5.20;3.03;;;24.20;32.30;;;;;;2250225;61;20359;-55
2022/06/10 07:09:06;0.00;0.00;0.62;0.00;0.00;0.62;4.50;2.57;;;24.20;32.30;;;;;;2249728;61;20934;-55
2022/06/10 07:11:52;0.00;0.00;0.62;0.00;0.00;0.62;3.77;2.60;;;24.30;32.40;;;;;;2250591;61;20627;-51
2022/06/10 07:14:38;0.00;0.00;0.62;0.00;0.00;0.62;5.17;2.40;;;24.30;32.30;;;;;;2249645;61;20382;-55
2022/06/10 07:17:24;0.00;0.00;0.62;0.00;0.00;0.62;4.13;2.67;;;24.30;32.20;;;;;;2246993;61;20401;-56
2022/06/10 07:20:18;0.00;0.00;0.62;0.00;0.00;0.62;4.27;2.47;;;24.30;32.20;;;;;;2250440;61;20375;-51
2022/06/10 07:23:06;0.00;0.00;0.62;0.00;0.00;0.62;4.00;2.53;;;24.30;32.20;;;;;;2248732;61;20433;-56
2022/06/10 07:25:54;0.00;0.00;0.62;0.00;0.00;0.62;5.10;2.77;;;24.30;32.10;;;;;;2249975;61;20375;-52
2022/06/10 07:28:39;0.00;0.00;0.62;0.00;0.00;0.62;5.17;2.80;;;24.40;32.10;;;;;;2246707;61;20367;-56
2022/06/10 07:31:24;0.00;0.00;0.62;0.00;0.00;0.62;3.27;1.97;;;24.30;31.90;;;;;;2249281;61;20820;-55
2022/06/10 07:34:16;0.00;0.00;0.62;0.00;0.00;0.62;4.47;2.83;;;24.40;32.00;;;;;;2250018;61;20514;-55
2022/06/10 07:37:02;0.00;0.00;0.62;0.00;0.00;0.62;5.57;2.93;;;24.40;32.10;;;;;;2249582;61;20398;-56
2022/06/10 07:39:47;0.00;0.00;0.62;0.00;0.00;0.62;4.13;2.40;;;24.40;32.00;;;;;;2250416;61;20366;-55
2022/06/10 07:42:36;0.00;0.00;0.62;0.00;0.00;0.62;4.00;2.40;;;24.40;32.00;;;;;;2250190;61;20445;-55
2022/06/10 07:45:22;0.00;0.00;0.62;0.00;0.00;0.62;5.63;2.73;;;24.50;32.00;;;;;;2249273;61;21039;-56
2022/06/10 07:48:10;0.00;0.00;0.62;0.00;0.00;0.62;7.50;2.97;;;24.50;32.00;;;;;;2250360;61;21047;-51
2022/06/10 07:50:56;0.00;0.00;0.62;0.00;0.00;0.62;3.87;1.77;;;24.50;31.90;;;;;;2249607;61;20374;-55
2022/06/10 07:53:42;0.00;0.00;0.62;0.00;0.00;0.62;4.20;2.20;;;24.50;31.70;;;;;;2249338;61;20863;-54
2022/06/10 07:56:28;0.00;0.00;0.62;0.00;0.00;0.62;3.80;2.47;;;24.50;31.60;;;;;;2249788;61;20443;-53
2022/06/10 07:59:15;0.00;0.00;0.62;0.00;0.00;0.62;3.07;2.20;;;24.50;31.30;;;;;;2249739;61;20422;-54
2022/06/10 08:02:00;0.00;0.00;0.62;0.00;0.00;0.62;5.77;2.60;;;24.50;31.00;;;;;;2250178;61;20375;-55
2022/06/10 08:04:45;0.00;0.00;0.62;0.00;0.00;0.62;5.80;3.00;;;24.60;30.30;;;;;;2250032;61;20984;-55
2022/06/10 08:07:32;0.00;0.00;0.62;0.00;0.00;0.62;9.10;3.47;;;24.60;30.40;;;;;;2249189;61;20371;-53
2022/06/10 08:10:23;0.00;0.00;0.62;0.00;0.00;0.62;8.40;4.10;;;24.60;30.40;;;;;;2250141;61;20447;-53
2022/06/10 08:13:10;0.00;0.00;0.62;0.00;0.00;0.62;6.97;5.47;;;24.60;30.30;;;;;;2246260;61;20437;-56
2022/06/10 08:15:57;0.00;0.00;0.62;0.00;0.00;0.62;6.10;3.57;;;24.60;30.00;;;;;;2249493;61;20409;-54
2022/06/10 08:18:42;0.00;0.00;0.62;0.00;0.00;0.62;5.67;4.00;;;24.60;30.20;;;;;;2250025;61;20895;-55
2022/06/10 08:24:31;0.00;0.00;0.62;0.00;0.00;0.62;6.70;3.70;;;24.60;30.60;;;;;;2250180;61;20386;-56
2022/06/10 08:27:16;0.00;0.00;0.62;0.00;0.00;0.62;5.73;3.50;;;24.60;30.60;;;;;;2250037;61;20418;-55
2022/06/10 08:30:02;0.00;0.00;0.62;0.00;0.00;0.62;6.83;3.97;;;24.60;30.70;;;;;;2249609;61;20363;-52
2022/06/10 08:32:49;0.00;0.00;0.62;0.00;0.00;0.62;6.47;3.60;;;24.60;30.80;;;;;;2249994;61;20453;-52
2022/06/10 08:35:36;0.00;0.00;0.62;0.00;0.00;0.62;12.20;4.73;;;24.60;30.80;;;;;;2249833;61;20602;-56
2022/06/10 08:38:21;0.00;0.00;0.62;0.00;0.00;0.62;9.07;3.53;;;24.60;30.80;;;;;;2252545;61;20366;-56
2022/06/10 08:41:15;0.00;0.00;0.62;0.00;0.00;0.62;7.20;3.80;;;24.60;30.80;;;;;;2253078;61;20433;-57
2022/06/10 08:44:10;0.00;0.00;0.62;0.00;0.00;0.62;5.80;3.20;;;24.60;30.90;;;;;;2249000;61;20482;-59
2022/06/10 08:47:35;0.00;0.00;0.62;0.00;0.00;0.62;5.40;3.47;;;24.70;31.00;;;;;;2253387;61;20362;-60
2022/06/10 08:50:52;0.00;0.00;0.62;0.00;0.00;0.62;7.07;3.20;;;24.70;30.80;;;;;;2252971;61;20812;-58
2022/06/10 08:53:57;0.00;0.00;0.62;0.00;0.00;0.62;6.40;3.23;;;24.70;30.90;;;;;;2253138;61;20445;-58
2022/06/10 08:56:46;0.00;0.00;0.62;0.00;0.00;0.62;6.43;4.27;;;24.70;30.90;;;;;;2252784;61;20498;-60
2022/06/10 08:59:38;0.00;0.00;0.62;0.00;0.00;0.62;4.20;3.50;;;24.70;30.70;;;;;;2252505;61;20367;-58
2022/06/10 09:02:30;0.00;0.00;0.62;0.00;0.00;0.62;4.03;2.90;;;24.70;30.50;;;;;;2253306;61;20900;-60
2022/06/10 09:05:21;0.00;0.00;0.62;0.00;0.00;0.62;3.37;2.80;;;24.70;30.20;;;;;;2253047;61;20363;-57
2022/06/10 09:08:17;0.00;0.00;0.62;0.00;0.00;0.62;8.27;3.30;;;24.70;30.10;;;;;;2252732;61;21012;-57
2022/06/10 09:11:25;0.00;0.00;0.62;0.00;0.00;0.62;4.73;3.03;;;24.70;30.10;;;;;;2253161;61;20969;-59
2022/06/10 09:14:17;0.00;0.00;0.62;0.00;0.00;0.62;4.40;2.70;;;24.70;30.10;;;;;;2252042;61;20430;-58
2022/06/10 09:17:10;0.00;0.00;0.62;0.00;0.00;0.62;3.13;2.47;;;24.70;30.30;;;;;;2246414;61;20426;-59
2022/06/10 09:20:04;0.00;0.00;0.62;0.00;0.00;0.62;3.97;2.80;;;24.70;30.40;;;;;;2249592;61;20831;-57
2022/06/10 09:22:55;0.00;0.00;0.62;0.00;0.00;0.62;7.97;2.97;;;24.70;30.40;;;;;;2248838;61;20396;-59
2022/06/10 09:25:44;0.00;0.00;0.62;0.00;0.00;0.62;3.70;3.00;;;24.70;30.60;;;;;;2249799;61;20387;-56
2022/06/10 09:28:29;0.00;0.00;0.62;0.00;0.00;0.62;3.53;2.90;;;24.80;30.60;;;;;;2248832;61;20889;-58
2022/06/10 09:31:28;0.00;0.00;0.62;0.00;0.00;0.62;3.60;3.30;;;24.80;30.50;;;;;;2249603;61;20415;-57
2022/06/10 09:34:31;0.00;0.00;0.62;0.00;0.00;0.62;4.33;2.90;;;24.80;30.60;;;;;;2249450;61;20464;-57
2022/06/10 09:37:30;0.00;0.00;0.62;0.00;0.00;0.62;8.17;3.43;;;24.80;30.60;;;;;;2249122;61;20367;-54
2022/06/10 09:40:37;0.00;0.00;0.62;0.00;0.00;0.62;5.90;2.70;;;24.90;30.60;;;;;;2249756;61;20391;-58
2022/06/10 09:43:54;0.00;0.00;0.62;0.00;0.00;0.62;6.70;3.33;;;24.90;30.30;;;;;;2250449;61;20430;-57
2022/06/10 09:47:07;0.00;0.00;0.62;0.00;0.00;0.62;5.37;2.57;;;24.90;30.00;;;;;;2252900;61;20367;-57
2022/06/10 09:50:20;0.00;0.00;0.62;0.00;0.00;0.62;5.37;2.90;;;24.90;30.00;;;;;;2252794;61;20370;-59
2022/06/10 09:53:25;0.00;0.00;0.62;0.00;0.00;0.62;6.33;2.50;;;24.90;29.70;;;;;;2250586;61;20383;-57
2022/06/10 09:57:02;0.00;0.00;0.62;0.00;0.00;0.62;4.37;2.97;;;24.90;29.60;;;;;;2250839;61;20366;-58
2022/06/10 10:00:00;0.00;0.00;0.62;0.00;0.00;0.62;4.80;2.80;;;25.00;29.70;;;;;;2248247;61;20370;-56
2022/06/10 10:03:03;0.00;0.00;0.62;0.00;0.00;0.62;2.83;2.50;;;25.00;29.80;;;;;;2253894;61;20426;-59
2022/06/10 10:06:10;0.00;0.00;0.62;0.00;0.00;0.62;4.00;2.30;;;24.90;30.00;;;;;;2252968;61;20379;-59
2022/06/10 10:09:05;0.00;0.00;0.62;0.00;0.00;0.62;4.73;2.30;;;25.00;30.00;;;;;;2254501;61;20443;-56
2022/06/10 10:12:03;0.00;0.00;0.62;0.00;0.00;0.62;5.00;3.40;;;25.00;30.00;;;;;;2253654;61;20367;-58
2022/06/10 10:15:01;0.00;0.00;0.62;0.00;0.00;0.62;2.93;2.10;;;25.00;30.00;;;;;;2252595;61;20383;-57
2022/06/10 10:18:21;0.00;0.00;0.62;0.00;0.00;0.62;2.83;2.13;;;25.00;30.00;;;;;;2253307;61;20366;-55
2022/06/10 10:21:13;0.00;0.00;0.62;0.00;0.00;0.62;3.67;2.70;;;25.00;30.00;;;;;;2252687;61;20413;-54
2022/06/10 10:24:00;0.00;0.00;0.62;0.00;0.00;0.62;2.90;2.30;;;25.00;30.00;;;;;;2253076;61;20783;-57
2022/06/10 10:26:47;0.00;0.00;0.62;0.00;0.00;0.62;2.70;2.00;;;25.10;29.70;;;;;;2252928;61;20366;-58
2022/06/10 10:29:39;0.00;0.00;0.62;0.00;0.00;0.62;4.80;2.77;;;25.10;29.20;;;;;;2252942;61;20410;-58
2022/06/10 10:32:33;0.00;0.00;0.62;0.00;0.00;0.62;3.90;2.10;;;25.10;29.00;;;;;;2253727;61;20402;-58
2022/06/10 10:35:23;0.00;0.00;0.62;0.00;0.00;0.62;3.13;1.73;;;25.20;28.90;;;;;;2252038;61;20366;-57
2022/06/10 10:38:11;0.00;0.00;0.62;0.00;0.00;0.62;4.13;2.40;;;25.20;29.00;;;;;;2254854;61;20407;-57
2022/06/10 10:40:56;0.00;0.00;0.62;0.00;0.00;0.62;4.43;2.23;;;25.20;29.10;;;;;;2251722;61;20378;-59
2022/06/10 10:43:45;0.00;0.00;0.62;0.00;0.00;0.62;3.30;1.80;;;25.20;29.20;;;;;;2247453;61;20494;-57
2022/06/10 10:46:37;0.00;0.00;0.62;0.00;0.00;0.62;3.50;2.13;;;25.20;29.30;;;;;;2254374;61;20435;-58
2022/06/10 10:49:28;0.00;0.00;0.62;0.00;0.00;0.62;3.20;2.07;;;25.20;29.30;;;;;;2253344;61;20363;-56
2022/06/10 10:52:20;0.00;0.00;0.62;0.00;0.00;0.62;4.57;2.03;;;25.20;29.40;;;;;;2254095;61;20402;-57
2022/06/10 10:55:22;0.00;0.00;0.62;0.00;0.00;0.62;3.00;2.63;;;25.30;29.50;;;;;;2253284;61;20382;-57
2022/06/10 10:58:24;0.00;0.00;0.62;0.00;0.00;0.62;2.60;1.97;;;25.30;29.50;;;;;;2252369;61;20794;-57
2022/06/10 11:01:43;0.00;0.00;0.62;0.00;0.00;0.62;5.43;2.40;;;25.30;29.60;;;;;;2253899;61;20398;-59
2022/06/10 11:04:28;0.00;0.00;0.62;0.00;0.00;0.62;4.57;2.43;;;25.40;29.80;;;;;;2252882;61;20395;-59
2022/06/10 11:07:16;0.00;0.00;0.62;0.00;0.00;0.62;4.10;2.63;;;25.40;29.80;;;;;;2254380;61;20441;-59
2022/06/10 11:10:08;0.00;0.00;0.62;0.00;0.00;0.62;3.60;2.67;;;25.40;29.80;;;;;;2253505;61;20494;-58
2022/06/10 11:12:53;0.00;0.00;0.62;0.00;0.00;0.62;5.33;2.77;;;25.40;29.80;;;;;;2253331;61;20425;-58
2022/06/10 11:15:38;0.00;0.00;0.62;0.00;0.00;0.62;3.53;2.00;;;25.40;29.80;;;;;;2253305;61;20367;-59
2022/06/10 11:18:23;0.00;0.00;0.62;0.00;0.00;0.62;4.70;2.40;;;25.40;29.80;;;;;;2253550;61;20371;-59
2022/06/10 11:21:08;0.00;0.00;0.62;0.00;0.00;0.62;4.30;2.27;;;25.50;29.90;;;;;;2254103;61;20363;-59